createdAt,value
2018-10-17T00:00:45.799Z,24.07
2018-10-17T00:03:13.069Z,29.20
2018-10-17T00:05:40.323Z,26.93
2018-10-17T00:08:07.517Z,25.23
2018-10-17T00:10:34.754Z,26.73
2018-10-17T00:13:02.029Z,26.37
2018-10-17T00:15:29.257Z,21.10
2018-10-17T00:17:56.429Z,24.80
2018-10-17T00:20:23.645Z,24.37
2018-10-17T00:22:50.801Z,25.70
2018-10-17T00:25:17.963Z,24.50
2018-10-17T00:27:45.188Z,24.90
2018-10-17T00:30:12.855Z,25.07
2018-10-17T00:32:40.133Z,28.20
2018-10-17T00:35:07.962Z,27.80
2018-10-17T00:37:35.133Z,24.67
2018-10-17T00:40:02.492Z,24.43
2018-10-17T00:42:29.750Z,23.17
2018-10-17T00:44:56.913Z,27.57
2018-10-17T00:47:24.097Z,26.00
2018-10-17T00:49:51.301Z,25.50
2018-10-17T00:52:18.456Z,27.47
2018-10-17T00:54:45.646Z,26.83
2018-10-17T00:57:12.880Z,22.63
2018-10-17T00:59:40.019Z,27.77
2018-10-17T01:02:07.248Z,27.37
2018-10-17T01:04:34.465Z,24.17
2018-10-17T01:07:01.683Z,24.23
2018-10-17T01:09:28.819Z,23.13
2018-10-17T01:11:56.009Z,22.53
2018-10-17T01:14:23.169Z,26.67
2018-10-17T01:16:50.356Z,27.73
2018-10-17T01:19:17.541Z,29.37
2018-10-17T01:21:44.724Z,28.80
2018-10-17T01:24:11.896Z,26.00
2018-10-17T01:26:39.101Z,24.77
2018-10-17T01:29:06.366Z,27.30
2018-10-17T01:31:33.517Z,24.03
2018-10-17T01:34:00.800Z,27.93
2018-10-17T01:36:27.958Z,28.40
2018-10-17T01:38:55.118Z,26.53
2018-10-17T01:41:22.426Z,29.00
2018-10-17T01:43:49.601Z,23.37
2018-10-17T01:46:16.815Z,25.90
2018-10-17T01:48:44.061Z,25.67
2018-10-17T01:51:11.267Z,25.47
2018-10-17T01:53:38.402Z,24.80
2018-10-17T01:56:05.692Z,25.20
2018-10-17T01:58:32.847Z,24.40
2018-10-17T02:01:00.072Z,25.33
2018-10-17T02:03:27.345Z,27.73
2018-10-17T02:05:54.578Z,25.43
2018-10-17T02:08:22.012Z,25.93
2018-10-17T02:10:49.233Z,26.50
2018-10-17T02:13:19.183Z,22.07
2018-10-17T02:15:46.402Z,25.23
2018-10-17T02:18:15.539Z,25.63
2018-10-17T02:20:42.808Z,25.67
2018-10-17T02:23:10.010Z,24.87
2018-10-17T02:25:37.298Z,23.17
2018-10-17T02:28:04.774Z,29.93
2018-10-17T02:30:31.967Z,26.83
2018-10-17T02:32:59.273Z,25.27
2018-10-17T02:35:26.429Z,29.03
2018-10-17T02:37:53.603Z,30.23
2018-10-17T02:40:20.792Z,25.63
2018-10-17T02:42:47.995Z,25.03
2018-10-17T02:45:15.173Z,25.53
2018-10-17T02:47:42.451Z,26.03
2018-10-17T02:50:10.822Z,23.60
2018-10-17T02:52:39.301Z,25.57
2018-10-17T02:55:06.986Z,26.13
2018-10-17T02:57:34.231Z,25.33
2018-10-17T03:00:01.723Z,24.70
2018-10-17T03:02:29.049Z,27.93
2018-10-17T03:04:56.203Z,28.10
2018-10-17T03:07:23.378Z,26.47
2018-10-17T03:09:50.582Z,24.33
2018-10-17T03:12:17.775Z,24.33
2018-10-17T03:14:44.958Z,25.90
2018-10-17T03:17:12.292Z,24.43
2018-10-17T03:19:39.364Z,30.37
2018-10-17T03:22:06.574Z,31.03
2018-10-17T03:24:34.009Z,26.63
2018-10-17T03:27:01.246Z,24.13
2018-10-17T03:29:28.451Z,24.57
2018-10-17T03:31:55.674Z,28.50
2018-10-17T03:34:22.867Z,21.77
2018-10-17T03:36:50.073Z,23.37
2018-10-17T03:39:17.661Z,28.97
2018-10-17T03:41:44.831Z,25.83
2018-10-17T03:44:12.049Z,29.40
2018-10-17T03:46:39.342Z,32.93
2018-10-17T03:49:07.017Z,25.97
2018-10-17T03:51:34.148Z,26.53
2018-10-17T03:54:01.374Z,26.23
2018-10-17T03:56:28.864Z,30.17
2018-10-17T03:58:56.065Z,36.03
2018-10-17T04:01:23.290Z,28.43
2018-10-17T04:03:50.510Z,29.63
2018-10-17T04:06:17.628Z,25.97
2018-10-17T04:08:44.832Z,29.37
2018-10-17T04:11:12.030Z,24.23
2018-10-17T04:13:39.105Z,25.57
2018-10-17T04:16:06.297Z,25.20
2018-10-17T04:18:33.433Z,25.23
2018-10-17T04:21:00.549Z,24.83
2018-10-17T04:23:27.854Z,31.53
2018-10-17T04:25:55.029Z,26.93
2018-10-17T04:28:22.193Z,29.63
2018-10-17T04:30:49.491Z,25.47
2018-10-17T04:33:16.611Z,25.47
2018-10-17T04:35:43.884Z,23.63
2018-10-17T04:38:11.105Z,24.90
2018-10-17T04:40:38.266Z,25.40
2018-10-17T04:43:05.570Z,23.33
2018-10-17T04:45:32.749Z,23.17
2018-10-17T04:48:00.000Z,24.70
2018-10-17T04:50:27.194Z,24.40
2018-10-17T04:52:54.379Z,28.20
2018-10-17T04:55:21.595Z,27.87
2018-10-17T04:57:48.724Z,22.87
2018-10-17T05:00:15.930Z,23.60
2018-10-17T05:02:43.359Z,21.80
2018-10-17T05:05:10.844Z,24.57
2018-10-17T05:07:38.092Z,22.60
2018-10-17T05:10:05.256Z,24.20
2018-10-17T05:12:32.416Z,25.23
2018-10-17T05:14:59.715Z,25.50
2018-10-17T05:17:26.846Z,27.30
2018-10-17T05:19:54.098Z,27.37
2018-10-17T05:22:21.364Z,25.13
2018-10-17T05:24:48.513Z,25.57
2018-10-17T05:27:15.644Z,24.23
2018-10-17T05:29:42.890Z,28.93
2018-10-17T05:32:09.998Z,28.53
2018-10-17T05:34:37.306Z,26.27
2018-10-17T05:37:04.816Z,26.33
2018-10-17T05:39:31.985Z,23.30
2018-10-17T05:41:59.123Z,24.13
2018-10-17T05:44:26.404Z,25.93
2018-10-17T05:46:53.577Z,28.70
2018-10-17T05:49:20.738Z,25.30
2018-10-17T05:51:47.953Z,24.33
2018-10-17T05:54:15.329Z,24.90
2018-10-17T05:56:42.498Z,26.77
2018-10-17T05:59:09.779Z,29.87
2018-10-17T06:01:37.381Z,28.37
2018-10-17T06:04:04.589Z,29.10
2018-10-17T06:06:31.785Z,34.57
2018-10-17T06:08:58.950Z,46.40
2018-10-17T06:11:26.136Z,42.77
2018-10-17T06:13:53.405Z,47.67
2018-10-17T06:16:20.610Z,38.10
2018-10-17T06:18:47.885Z,36.97
2018-10-17T06:21:15.097Z,34.53
2018-10-17T06:23:42.253Z,30.23
2018-10-17T06:26:09.405Z,30.87
2018-10-17T06:28:36.712Z,33.27
2018-10-17T06:31:04.096Z,30.37
2018-10-17T06:33:31.241Z,32.17
2018-10-17T06:35:58.465Z,31.37
2018-10-17T06:38:25.709Z,34.33
2018-10-17T06:40:52.905Z,32.63
2018-10-17T06:43:20.149Z,37.60
2018-10-17T06:45:47.308Z,33.90
2018-10-17T06:48:14.558Z,32.43
2018-10-17T06:50:41.757Z,30.57
2018-10-17T06:53:08.933Z,31.47
2018-10-17T06:55:36.431Z,31.13
2018-10-17T06:58:03.755Z,32.03
2018-10-17T07:00:30.913Z,31.73
2018-10-17T07:02:58.090Z,29.67
2018-10-17T07:05:25.325Z,33.80
2018-10-17T07:07:52.497Z,35.37
2018-10-17T07:10:19.665Z,33.83
2018-10-17T07:12:46.968Z,34.57
2018-10-17T07:15:15.210Z,34.50
2018-10-17T07:17:42.369Z,40.13
2018-10-17T07:20:09.682Z,35.40
2018-10-17T07:22:36.966Z,35.20
2018-10-17T07:25:04.543Z,38.67
2018-10-17T07:27:31.791Z,38.03
2018-10-17T07:29:58.969Z,42.57
2018-10-17T07:32:26.298Z,48.90
2018-10-17T07:34:53.481Z,52.37
2018-10-17T07:37:20.625Z,51.53
2018-10-17T07:39:47.809Z,54.83
2018-10-17T07:42:15.246Z,50.60
2018-10-17T07:44:42.218Z,50.73
2018-10-17T07:47:09.376Z,50.27
2018-10-17T07:49:36.735Z,48.47
2018-10-17T07:52:04.420Z,50.40
2018-10-17T07:54:31.578Z,51.50
2018-10-17T07:56:58.818Z,50.87
2018-10-17T07:59:25.973Z,48.70
2018-10-17T08:01:53.133Z,51.23
2018-10-17T08:04:20.345Z,52.17
2018-10-17T08:06:47.657Z,50.83
2018-10-17T08:09:14.745Z,56.40
2018-10-17T08:11:41.902Z,54.73
2018-10-17T08:14:09.213Z,51.90
2018-10-17T08:16:36.264Z,49.03
2018-10-17T08:19:03.617Z,52.70
2018-10-17T08:21:30.899Z,48.87
2018-10-17T08:23:57.972Z,48.67
2018-10-17T08:26:25.256Z,48.50
2018-10-17T08:28:52.362Z,52.00
2018-10-17T08:31:19.453Z,49.03
2018-10-17T08:33:46.577Z,51.27
2018-10-17T08:36:13.950Z,47.50
2018-10-17T08:38:40.856Z,48.57
2018-10-17T08:41:08.094Z,49.20
2018-10-17T08:43:35.257Z,48.67
2018-10-17T08:46:02.491Z,51.60
2018-10-17T08:48:29.662Z,48.57
2018-10-17T08:50:56.882Z,53.77
2018-10-17T08:53:24.053Z,51.67
2018-10-17T08:55:51.331Z,55.13
2018-10-17T08:58:18.459Z,53.43
2018-10-17T09:00:45.623Z,51.47
2018-10-17T09:03:12.809Z,51.47
2018-10-17T09:05:39.946Z,51.97
2018-10-17T09:08:07.126Z,49.60
2018-10-17T09:10:49.332Z,48.60
2018-10-17T09:13:32.067Z,47.33
2018-10-17T09:15:59.336Z,48.40
2018-10-17T09:18:26.449Z,49.17
2018-10-17T09:20:54.102Z,47.23
2018-10-17T09:23:20.803Z,48.50
2018-10-17T09:25:47.936Z,46.20
2018-10-17T09:28:15.117Z,43.73
2018-10-17T09:30:42.330Z,46.07
2018-10-17T09:33:09.521Z,41.70
2018-10-17T09:35:36.821Z,42.60
2018-10-17T09:38:03.989Z,42.90
2018-10-17T09:40:31.136Z,43.37
2018-10-17T09:42:58.311Z,40.30
2018-10-17T09:45:25.509Z,41.43
2018-10-17T09:47:52.653Z,45.10
2018-10-17T09:50:19.807Z,42.83
2018-10-17T09:52:47.041Z,39.37
2018-10-17T09:55:14.185Z,38.10
2018-10-17T09:57:41.325Z,37.30
2018-10-17T10:00:14.528Z,36.83
2018-10-17T10:02:41.748Z,39.97
2018-10-17T10:05:08.873Z,39.90
2018-10-17T10:07:36.056Z,40.00
2018-10-17T10:10:03.287Z,37.10
2018-10-17T10:12:30.420Z,37.83
2018-10-17T10:14:57.633Z,36.77
2018-10-17T10:17:24.828Z,34.27
2018-10-17T10:19:51.961Z,29.87
2018-10-17T10:22:19.152Z,34.73
2018-10-17T10:24:46.350Z,33.67
2018-10-17T10:27:13.432Z,36.00
2018-10-17T10:29:40.629Z,33.53
2018-10-17T10:32:07.780Z,29.73
2018-10-17T10:34:35.007Z,29.43
2018-10-17T10:37:02.172Z,30.63
2018-10-17T10:39:29.439Z,31.40
2018-10-17T10:41:56.617Z,36.03
2018-10-17T10:44:23.785Z,27.47
2018-10-17T10:46:50.922Z,27.03
2018-10-17T10:49:18.089Z,30.60
2018-10-17T10:51:45.315Z,28.77
2018-10-17T10:54:12.589Z,32.43
2018-10-17T10:56:39.716Z,28.97
2018-10-17T10:59:06.987Z,37.43
2018-10-17T11:01:34.078Z,31.37
2018-10-17T11:04:01.214Z,27.30
2018-10-17T11:06:28.403Z,32.00
2018-10-17T11:08:55.560Z,28.10
2018-10-17T11:11:22.779Z,27.43
2018-10-17T11:13:49.974Z,30.23
2018-10-17T11:16:17.169Z,29.90
2018-10-17T11:18:44.321Z,32.97
2018-10-17T11:21:11.583Z,30.33
2018-10-17T11:23:38.697Z,28.53
2018-10-17T11:26:05.904Z,29.80
2018-10-17T11:28:33.117Z,34.93
2018-10-17T11:31:00.261Z,30.03
2018-10-17T11:33:27.408Z,33.10
2018-10-17T11:35:54.597Z,31.77
2018-10-17T11:38:21.766Z,30.23
2018-10-17T11:40:48.941Z,33.23
2018-10-17T11:43:16.125Z,32.67
2018-10-17T11:45:43.274Z,35.10
2018-10-17T11:48:10.409Z,34.70
2018-10-17T11:50:37.623Z,38.13
2018-10-17T11:53:04.800Z,35.83
2018-10-17T11:55:32.053Z,33.97
2018-10-17T11:57:59.237Z,35.23
2018-10-17T12:00:26.389Z,35.37
2018-10-17T12:02:53.619Z,35.93
2018-10-17T12:05:20.987Z,32.90
2018-10-17T12:07:47.932Z,34.40
2018-10-17T12:10:15.064Z,37.23
2018-10-17T12:12:42.328Z,36.63
2018-10-17T12:15:11.604Z,36.70
2018-10-17T12:17:38.719Z,37.17
2018-10-17T12:20:07.537Z,35.80
2018-10-17T12:22:34.684Z,39.43
2018-10-17T12:25:01.867Z,34.00
2018-10-17T12:27:29.152Z,33.30
2018-10-17T12:29:56.383Z,38.40
2018-10-17T12:32:23.492Z,36.90
2018-10-17T12:34:50.757Z,38.50
2018-10-17T12:37:17.905Z,38.07
2018-10-17T12:39:45.167Z,37.63
2018-10-17T12:42:12.280Z,38.90
2018-10-17T12:44:39.442Z,38.10
2018-10-17T12:47:06.610Z,42.70
2018-10-17T12:49:33.837Z,35.70
2018-10-17T12:52:01.046Z,32.63
2018-10-17T12:54:28.144Z,34.67
2018-10-17T12:56:55.382Z,35.57
2018-10-17T12:59:22.541Z,37.20
2018-10-17T13:01:49.674Z,37.13
2018-10-17T13:04:16.881Z,34.10
2018-10-17T13:06:44.108Z,35.53
2018-10-17T13:09:11.957Z,42.03
2018-10-17T13:11:44.473Z,35.17
2018-10-17T13:14:11.789Z,41.53
2018-10-17T13:16:38.924Z,37.60
2018-10-17T13:19:06.187Z,37.60
2018-10-17T13:21:33.272Z,37.47
2018-10-17T13:24:00.424Z,32.30
2018-10-17T13:26:27.620Z,36.97
2018-10-17T13:28:54.869Z,38.73
2018-10-17T13:31:22.068Z,37.67
2018-10-17T13:33:49.225Z,37.53
2018-10-17T13:36:16.392Z,38.57
2018-10-17T13:38:43.519Z,37.03
2018-10-17T13:41:10.755Z,36.27
2018-10-17T13:43:37.865Z,31.70
2018-10-17T13:46:05.073Z,33.87
2018-10-17T13:48:32.337Z,32.77
2018-10-17T13:50:59.496Z,33.30
2018-10-17T13:53:26.636Z,33.80
2018-10-17T13:55:53.806Z,31.50
2018-10-17T13:58:21.071Z,31.07
2018-10-17T14:00:48.282Z,33.27
2018-10-17T14:03:15.484Z,35.23
2018-10-17T14:05:42.632Z,31.90
2018-10-17T14:08:09.771Z,32.10
2018-10-17T14:10:36.964Z,33.23
2018-10-17T14:13:04.256Z,33.80
2018-10-17T14:15:31.412Z,31.03
2018-10-17T14:17:58.696Z,31.40
2018-10-17T14:20:26.008Z,32.73
2018-10-17T14:22:53.256Z,29.47
2018-10-17T14:25:20.598Z,33.10
2018-10-17T14:27:47.765Z,37.67
2018-10-17T14:30:15.045Z,35.93
2018-10-17T14:32:42.200Z,32.87
2018-10-17T14:35:10.441Z,31.17
2018-10-17T14:37:38.096Z,32.00
2018-10-17T14:40:05.539Z,30.23
2018-10-17T14:42:32.756Z,33.23
2018-10-17T14:45:00.011Z,29.20
2018-10-17T14:47:27.460Z,31.80
2018-10-17T14:49:54.789Z,34.07
2018-10-17T14:52:22.219Z,31.30
2018-10-17T14:54:49.791Z,29.00
2018-10-17T14:57:17.015Z,30.83
2018-10-17T14:59:44.188Z,29.97
2018-10-17T15:02:11.392Z,29.23
2018-10-17T15:04:38.537Z,27.23
2018-10-17T15:07:05.697Z,27.00
2018-10-17T15:09:32.876Z,24.93
2018-10-17T15:12:00.134Z,22.63
2018-10-17T15:14:27.290Z,28.20
2018-10-17T15:16:54.565Z,22.40
2018-10-17T15:19:21.725Z,26.97
2018-10-17T15:21:48.856Z,22.13
2018-10-17T15:24:16.127Z,21.33
2018-10-17T15:26:44.100Z,20.77
2018-10-17T15:29:11.257Z,21.47
2018-10-17T15:31:38.465Z,22.57
2018-10-17T15:34:05.584Z,22.77
2018-10-17T15:36:32.697Z,20.33
2018-10-17T15:38:59.934Z,19.87
2018-10-17T15:41:27.050Z,19.60
2018-10-17T15:43:54.191Z,20.37
2018-10-17T15:46:21.460Z,21.80
2018-10-17T15:48:48.600Z,21.57
2018-10-17T15:51:15.831Z,23.47
2018-10-17T15:53:43.106Z,21.77
2018-10-17T15:56:10.211Z,21.67
2018-10-17T15:58:37.378Z,24.73
2018-10-17T16:01:05.663Z,23.13
2018-10-17T16:03:33.829Z,22.17
2018-10-17T16:06:01.426Z,21.93
2018-10-17T16:08:29.853Z,21.83
2018-10-17T16:11:02.901Z,24.70
2018-10-17T16:13:37.519Z,24.13
2018-10-17T16:16:05.522Z,22.13
2018-10-17T16:18:37.496Z,25.77
2018-10-17T16:21:06.336Z,25.03
2018-10-17T16:23:35.165Z,24.60
2018-10-17T16:26:03.283Z,24.40
2018-10-17T16:28:31.796Z,25.37
2018-10-17T16:31:01.800Z,25.27
2018-10-17T16:33:33.783Z,30.73
2018-10-17T16:36:06.506Z,25.60
2018-10-17T16:38:35.081Z,25.70
2018-10-17T16:41:09.061Z,27.47
2018-10-17T16:43:39.464Z,27.30
2018-10-17T16:46:12.585Z,28.87
2018-10-17T16:48:42.221Z,29.63
2018-10-17T16:51:11.316Z,30.90
2018-10-17T16:53:38.768Z,28.97
2018-10-17T16:56:06.581Z,28.93
2018-10-17T16:58:33.789Z,29.97
2018-10-17T17:01:00.982Z,33.73
2018-10-17T17:03:28.310Z,29.43
2018-10-17T17:05:55.641Z,30.53
2018-10-17T17:08:23.562Z,30.63
2018-10-17T17:10:50.778Z,32.47
2018-10-17T17:13:17.940Z,34.37
2018-10-17T17:15:45.164Z,32.93
2018-10-17T17:18:13.169Z,38.63
2018-10-17T17:20:41.282Z,48.17
2018-10-17T17:23:08.495Z,47.77
2018-10-17T17:25:35.774Z,47.17
2018-10-17T17:28:02.935Z,57.37
2018-10-17T17:30:30.100Z,49.73
2018-10-17T17:32:57.327Z,49.60
2018-10-17T17:35:24.533Z,52.70
2018-10-17T17:37:51.662Z,54.67
2018-10-17T17:40:18.914Z,55.57
2018-10-17T17:42:46.020Z,57.37
2018-10-17T17:45:13.129Z,58.83
2018-10-17T17:47:40.450Z,55.27
2018-10-17T17:50:08.129Z,58.13
2018-10-17T17:52:35.272Z,59.27
2018-10-17T17:55:02.576Z,59.67
2018-10-17T17:57:29.656Z,59.33
2018-10-17T17:59:56.757Z,58.30
2018-10-17T18:02:24.509Z,53.10
2018-10-17T18:04:51.616Z,56.80
2018-10-17T18:07:18.712Z,55.73
2018-10-17T18:09:45.852Z,55.93
2018-10-17T18:12:12.986Z,51.93
2018-10-17T18:14:40.491Z,52.50
2018-10-17T18:17:07.692Z,56.70
2018-10-17T18:19:34.816Z,54.90
2018-10-17T18:22:02.093Z,51.00
2018-10-17T18:24:29.113Z,53.20
2018-10-17T18:26:56.199Z,55.20
2018-10-17T18:29:23.344Z,53.87
2018-10-17T18:31:50.475Z,53.67
2018-10-17T18:34:17.859Z,54.20
2018-10-17T18:36:44.854Z,57.57
2018-10-17T18:39:12.106Z,50.10
2018-10-17T18:41:39.389Z,47.20
2018-10-17T18:44:06.614Z,52.50
2018-10-17T18:46:33.836Z,47.07
2018-10-17T18:49:01.165Z,46.37
2018-10-17T18:51:28.381Z,51.20
2018-10-17T18:53:55.662Z,51.67
2018-10-17T18:56:23.087Z,49.60
2018-10-17T18:58:50.366Z,43.33
2018-10-17T19:01:17.645Z,43.57
2018-10-17T19:03:44.826Z,42.47
2018-10-17T19:06:12.058Z,45.70
2018-10-17T19:08:39.255Z,44.93
2018-10-17T19:11:06.685Z,49.07
2018-10-17T19:13:33.874Z,42.97
2018-10-17T19:16:01.216Z,50.57
2018-10-17T19:18:28.414Z,43.63
2018-10-17T19:20:55.676Z,47.43
2018-10-17T19:23:22.849Z,51.20
2018-10-17T19:25:50.013Z,48.43
2018-10-17T19:28:17.149Z,50.23
2018-10-17T19:30:44.354Z,48.67
2018-10-17T19:33:11.553Z,45.90
2018-10-17T19:35:38.939Z,48.03
2018-10-17T19:38:06.158Z,50.23
2018-10-17T19:40:33.326Z,45.20
2018-10-17T19:43:00.594Z,45.17
2018-10-17T19:45:27.865Z,62.27
2018-10-17T19:47:55.113Z,51.40
2018-10-17T19:50:22.203Z,46.20
2018-10-17T19:52:49.464Z,48.20
2018-10-17T19:55:16.641Z,44.90
2018-10-17T19:57:43.815Z,43.90
2018-10-17T20:00:12.514Z,48.53
2018-10-17T20:02:39.962Z,45.80
2018-10-17T20:05:07.141Z,47.30
2018-10-17T20:07:34.422Z,51.67
2018-10-17T20:10:01.561Z,47.80
2018-10-17T20:12:28.706Z,48.17
2018-10-17T20:14:55.927Z,48.93
2018-10-17T20:17:23.081Z,45.63
2018-10-17T20:19:50.299Z,45.87
2018-10-17T20:22:17.498Z,46.40
2018-10-17T20:24:44.754Z,49.60
2018-10-17T20:27:12.016Z,45.93
2018-10-17T20:29:39.394Z,46.43
2018-10-17T20:32:07.077Z,46.10
2018-10-17T20:34:34.293Z,45.73
2018-10-17T20:37:01.574Z,45.53
2018-10-17T20:39:28.729Z,48.67
2018-10-17T20:41:55.884Z,45.13
2018-10-17T20:44:23.113Z,45.37
2018-10-17T20:46:50.272Z,43.93
2018-10-17T20:49:17.442Z,43.03
2018-10-17T20:51:44.654Z,45.47
2018-10-17T20:54:11.829Z,45.60
2018-10-17T20:56:39.013Z,46.23
2018-10-17T20:59:06.209Z,43.97
2018-10-17T21:01:33.357Z,45.97
2018-10-17T21:04:00.508Z,44.30
2018-10-17T21:06:27.761Z,45.30
2018-10-17T21:08:54.896Z,43.67
2018-10-17T21:11:22.113Z,42.37
2018-10-17T21:13:49.298Z,42.23
2018-10-17T21:16:16.450Z,43.37
2018-10-17T21:18:43.646Z,46.57
2018-10-17T21:21:10.973Z,46.37
2018-10-17T21:23:38.142Z,50.70
2018-10-17T21:26:05.422Z,43.40
2018-10-17T21:28:32.644Z,40.97
2018-10-17T21:31:00.032Z,44.07
2018-10-17T21:33:27.197Z,46.73
2018-10-17T21:35:54.389Z,42.53
2018-10-17T21:38:21.909Z,47.70
2018-10-17T21:40:49.009Z,48.47
2018-10-17T21:43:16.234Z,46.20
2018-10-17T21:45:43.381Z,47.73
2018-10-17T21:48:10.535Z,45.53
2018-10-17T21:50:37.745Z,41.97
2018-10-17T21:53:05.361Z,42.00
2018-10-17T21:55:32.506Z,41.90
2018-10-17T21:57:59.696Z,49.83
2018-10-17T22:00:26.869Z,47.00
2018-10-17T22:02:54.004Z,47.77
2018-10-17T22:05:21.384Z,42.53
2018-10-17T22:07:48.538Z,43.97
2018-10-17T22:10:15.689Z,46.37
2018-10-17T22:12:42.942Z,45.47
2018-10-17T22:15:10.490Z,53.23
2018-10-17T22:17:37.659Z,48.63
2018-10-17T22:20:05.509Z,46.83
2018-10-17T22:22:32.641Z,47.10
2018-10-17T22:24:59.789Z,45.80
2018-10-17T22:27:26.968Z,43.97
2018-10-17T22:29:54.227Z,47.53
2018-10-17T22:32:21.377Z,43.37
2018-10-17T22:37:15.465Z,48.37
2018-10-17T22:39:42.619Z,49.67
2018-10-17T22:42:09.853Z,50.07
2018-10-17T22:44:37.221Z,52.53
2018-10-17T22:47:05.080Z,48.13
2018-10-17T22:49:32.249Z,46.13
2018-10-17T22:51:59.441Z,44.83
2018-10-17T22:54:26.621Z,47.90
2018-10-17T22:56:53.760Z,48.93
2018-10-17T22:59:21.122Z,50.17
2018-10-17T23:01:48.337Z,47.63
2018-10-17T23:04:15.514Z,46.73
2018-10-17T23:06:42.684Z,42.80
2018-10-17T23:09:14.219Z,42.27
2018-10-17T23:11:42.213Z,41.73
2018-10-17T23:14:09.919Z,45.63
2018-10-17T23:16:37.141Z,44.17
2018-10-17T23:19:04.902Z,46.57
2018-10-17T23:21:32.053Z,45.20
2018-10-17T23:23:59.336Z,44.40
2018-10-17T23:26:27.545Z,41.33
2018-10-17T23:28:54.717Z,44.90
2018-10-17T23:31:23.169Z,48.23
2018-10-17T23:33:50.391Z,44.90
2018-10-17T23:36:17.566Z,46.93
2018-10-17T23:38:44.710Z,41.13
2018-10-17T23:41:11.913Z,41.00
2018-10-17T23:43:39.060Z,44.37
2018-10-17T23:46:06.205Z,46.00
2018-10-17T23:48:33.402Z,41.93
2018-10-17T23:51:00.538Z,43.80
2018-10-17T23:53:27.695Z,43.97
2018-10-17T23:55:54.916Z,48.50
2018-10-17T23:58:22.056Z,47.60
